sensor_id;sensor_type;location;lat;lon;timestamp;pressure;altitude;pressure_sealevel;temperature;humidity
6096;BME280;25081;42.698;23.298;2023-08-17T00:00:46;95307.62;;;21.53;75.83
6096;BME280;25081;42.698;23.298;2023-08-17T00:02:56;95302.48;;;21.49;75.77
6096;BME280;25081;42.698;23.298;2023-08-17T00:05:07;95317.44;;;21.46;76.09
6096;BME280;25081;42.698;23.298;2023-08-17T00:07:18;95306.30;;;21.48;75.95
6096;BME280;25081;42.698;23.298;2023-08-17T00:09:28;95310.88;;;21.52;75.71
6096;BME280;25081;42.698;23.298;2023-08-17T00:11:39;95315.23;;;21.48;75.66
6096;BME280;25081;42.698;23.298;2023-08-17T00:13:49;95315.02;;;21.42;75.91
6096;BME280;25081;42.698;23.298;2023-08-17T00:16:00;95314.27;;;21.36;75.98
6096;BME280;25081;42.698;23.298;2023-08-17T00:18:10;95312.88;;;21.39;75.44
6096;BME280;25081;42.698;23.298;2023-08-17T00:20:20;95318.83;;;21.41;75.35
6096;BME280;25081;42.698;23.298;2023-08-17T00:22:31;95316.69;;;21.38;75.21
6096;BME280;25081;42.698;23.298;2023-08-17T00:24:42;95318.37;;;21.31;75.16
6096;BME280;25081;42.698;23.298;2023-08-17T00:26:53;95320.80;;;21.35;74.88
6096;BME280;25081;42.698;23.298;2023-08-17T00:29:04;95320.21;;;21.38;74.50
6096;BME280;25081;42.698;23.298;2023-08-17T00:31:14;95317.73;;;21.42;74.14
6096;BME280;25081;42.698;23.298;2023-08-17T00:33:24;95308.52;;;21.40;74.30
6096;BME280;25081;42.698;23.298;2023-08-17T00:35:35;95317.84;;;21.29;74.77
6096;BME280;25081;42.698;23.298;2023-08-17T00:37:45;95322.47;;;21.29;74.36
6096;BME280;25081;42.698;23.298;2023-08-17T00:39:56;95311.61;;;21.29;74.59
6096;BME280;25081;42.698;23.298;2023-08-17T00:42:07;95309.19;;;21.22;74.55
6096;BME280;25081;42.698;23.298;2023-08-17T00:44:17;95311.36;;;21.28;73.79
6096;BME280;25081;42.698;23.298;2023-08-17T00:46:28;95309.48;;;21.23;74.43
6096;BME280;25081;42.698;23.298;2023-08-17T00:48:38;95302.44;;;21.20;74.33
6096;BME280;25081;42.698;23.298;2023-08-17T00:50:49;95307.05;;;21.19;74.37
6096;BME280;25081;42.698;23.298;2023-08-17T00:53:00;95303.73;;;21.30;73.77
6096;BME280;25081;42.698;23.298;2023-08-17T00:55:10;95306.22;;;21.24;73.74
6096;BME280;25081;42.698;23.298;2023-08-17T00:57:21;95305.67;;;21.22;73.88
6096;BME280;25081;42.698;23.298;2023-08-17T00:59:31;95303.28;;;21.18;73.60
6096;BME280;25081;42.698;23.298;2023-08-17T01:01:42;95306.28;;;21.16;73.53
6096;BME280;25081;42.698;23.298;2023-08-17T01:03:52;95304.66;;;21.15;73.36
6096;BME280;25081;42.698;23.298;2023-08-17T01:06:03;95302.47;;;21.17;73.11
6096;BME280;25081;42.698;23.298;2023-08-17T01:08:13;95299.78;;;21.12;72.92
6096;BME280;25081;42.698;23.298;2023-08-17T01:10:24;95303.86;;;21.14;72.93
6096;BME280;25081;42.698;23.298;2023-08-17T01:12:36;95308.47;;;21.14;72.84
6096;BME280;25081;42.698;23.298;2023-08-17T01:14:48;95304.98;;;21.08;72.72
6096;BME280;25081;42.698;23.298;2023-08-17T01:16:58;95301.98;;;21.10;72.77
6096;BME280;25081;42.698;23.298;2023-08-17T01:19:08;95297.66;;;21.09;72.42
6096;BME280;25081;42.698;23.298;2023-08-17T01:21:18;95295.20;;;21.10;71.80
6096;BME280;25081;42.698;23.298;2023-08-17T01:23:29;95297.36;;;21.10;71.88
6096;BME280;25081;42.698;23.298;2023-08-17T01:25:39;95296.81;;;21.11;71.69
6096;BME280;25081;42.698;23.298;2023-08-17T01:27:50;95295.75;;;21.09;71.57
6096;BME280;25081;42.698;23.298;2023-08-17T01:30:00;95298.77;;;21.05;71.46
6096;BME280;25081;42.698;23.298;2023-08-17T01:32:12;95295.83;;;20.99;71.77
6096;BME280;25081;42.698;23.298;2023-08-17T01:34:22;95297.16;;;21.02;71.45
6096;BME280;25081;42.698;23.298;2023-08-17T01:36:33;95298.52;;;21.04;71.23
6096;BME280;25081;42.698;23.298;2023-08-17T01:38:43;95292.57;;;21.00;71.09
6096;BME280;25081;42.698;23.298;2023-08-17T01:40:53;95297.16;;;21.04;71.26
6096;BME280;25081;42.698;23.298;2023-08-17T01:43:04;95300.41;;;21.01;71.06
6096;BME280;25081;42.698;23.298;2023-08-17T01:45:15;95296.92;;;20.98;71.26
6096;BME280;25081;42.698;23.298;2023-08-17T01:47:26;95295.05;;;20.96;71.06
6096;BME280;25081;42.698;23.298;2023-08-17T01:49:36;95294.53;;;20.94;71.72
6096;BME280;25081;42.698;23.298;2023-08-17T01:51:47;95293.70;;;20.96;71.88
6096;BME280;25081;42.698;23.298;2023-08-17T01:53:57;95295.36;;;20.90;72.10
6096;BME280;25081;42.698;23.298;2023-08-17T01:56:08;95298.12;;;20.82;72.10
6096;BME280;25081;42.698;23.298;2023-08-17T01:58:18;95287.02;;;20.81;72.24
6096;BME280;25081;42.698;23.298;2023-08-17T02:00:29;95297.05;;;20.80;72.17
6096;BME280;25081;42.698;23.298;2023-08-17T02:02:39;95294.89;;;20.80;72.25
6096;BME280;25081;42.698;23.298;2023-08-17T02:04:50;95293.55;;;20.75;72.13
6096;BME280;25081;42.698;23.298;2023-08-17T02:07:00;95300.34;;;20.77;72.40
6096;BME280;25081;42.698;23.298;2023-08-17T02:09:11;95287.90;;;20.71;72.46
6096;BME280;25081;42.698;23.298;2023-08-17T02:11:22;95291.96;;;20.71;72.02
6096;BME280;25081;42.698;23.298;2023-08-17T02:13:32;95292.72;;;20.79;71.93
6096;BME280;25081;42.698;23.298;2023-08-17T02:15:43;95290.59;;;20.76;72.07
6096;BME280;25081;42.698;23.298;2023-08-17T02:17:53;95296.55;;;20.76;71.22
6096;BME280;25081;42.698;23.298;2023-08-17T02:20:06;95285.42;;;20.75;71.14
6096;BME280;25081;42.698;23.298;2023-08-17T02:22:16;95296.00;;;20.74;71.05
6096;BME280;25081;42.698;23.298;2023-08-17T02:24:27;95289.52;;;20.72;70.64
6096;BME280;25081;42.698;23.298;2023-08-17T02:26:37;95293.89;;;20.68;70.71
6096;BME280;25081;42.698;23.298;2023-08-17T02:28:48;95292.25;;;20.70;70.68
6096;BME280;25081;42.698;23.298;2023-08-17T02:30:59;95289.25;;;20.71;70.41
6096;BME280;25081;42.698;23.298;2023-08-17T02:33:09;95288.73;;;20.69;70.74
6096;BME280;25081;42.698;23.298;2023-08-17T02:35:20;95293.13;;;20.60;70.89
6096;BME280;25081;42.698;23.298;2023-08-17T02:37:30;95292.86;;;20.59;70.88
6096;BME280;25081;42.698;23.298;2023-08-17T02:39:41;95287.70;;;20.60;70.73
6096;BME280;25081;42.698;23.298;2023-08-17T02:41:51;95286.38;;;20.57;70.41
6096;BME280;25081;42.698;23.298;2023-08-17T02:44:02;95284.21;;;20.57;70.70
6096;BME280;25081;42.698;23.298;2023-08-17T02:46:12;95286.16;;;20.49;70.70
6096;BME280;25081;42.698;23.298;2023-08-17T02:48:23;95285.91;;;20.43;71.08
6096;BME280;25081;42.698;23.298;2023-08-17T02:50:33;95281.56;;;20.44;71.41
6096;BME280;25081;42.698;23.298;2023-08-17T02:52:44;95283.19;;;20.40;71.15
6096;BME280;25081;42.698;23.298;2023-08-17T02:54:55;95285.10;;;20.35;70.96
6096;BME280;25081;42.698;23.298;2023-08-17T02:57:05;95282.41;;;20.32;70.89
6096;BME280;25081;42.698;23.298;2023-08-17T02:59:16;95277.55;;;20.32;71.23
6096;BME280;25081;42.698;23.298;2023-08-17T03:01:26;95282.16;;;20.31;71.27
6096;BME280;25081;42.698;23.298;2023-08-17T03:03:37;95279.77;;;20.22;71.90
6096;BME280;25081;42.698;23.298;2023-08-17T03:05:47;95277.88;;;20.20;72.21
6096;BME280;25081;42.698;23.298;2023-08-17T03:07:58;95281.95;;;20.15;72.47
6096;BME280;25081;42.698;23.298;2023-08-17T03:10:09;95284.40;;;20.14;72.62
6096;BME280;25081;42.698;23.298;2023-08-17T03:12:20;95292.30;;;20.03;72.87
6096;BME280;25081;42.698;23.298;2023-08-17T03:14:30;95283.31;;;20.15;72.56
6096;BME280;25081;42.698;23.298;2023-08-17T03:16:41;95282.23;;;20.13;72.66
6096;BME280;25081;42.698;23.298;2023-08-17T03:18:51;95287.70;;;20.03;73.00
6096;BME280;25081;42.698;23.298;2023-08-17T03:21:02;95283.92;;;19.96;73.28
6096;BME280;25081;42.698;23.298;2023-08-17T03:23:12;95288.28;;;19.92;73.42
6096;BME280;25081;42.698;23.298;2023-08-17T03:25:23;95291.01;;;19.85;73.54
6096;BME280;25081;42.698;23.298;2023-08-17T03:27:33;95300.51;;;19.80;73.82
6096;BME280;25081;42.698;23.298;2023-08-17T03:29:44;95292.13;;;19.79;73.75
6096;BME280;25081;42.698;23.298;2023-08-17T03:31:54;95292.66;;;19.76;73.78
6096;BME280;25081;42.698;23.298;2023-08-17T03:34:05;95295.63;;;19.77;73.55
6096;BME280;25081;42.698;23.298;2023-08-17T03:36:16;95286.16;;;19.82;73.32
6096;BME280;25081;42.698;23.298;2023-08-17T03:38:26;95286.98;;;19.80;73.25
6096;BME280;25081;42.698;23.298;2023-08-17T03:40:37;95287.27;;;19.73;73.39
6096;BME280;25081;42.698;23.298;2023-08-17T03:42:47;95291.04;;;19.80;72.97
6096;BME280;25081;42.698;23.298;2023-08-17T03:44:58;95288.56;;;19.86;72.68
6096;BME280;25081;42.698;23.298;2023-08-17T03:47:09;95292.34;;;19.92;72.40
6096;BME280;25081;42.698;23.298;2023-08-17T03:49:19;95295.84;;;19.95;72.17
6096;BME280;25081;42.698;23.298;2023-08-17T03:51:30;95299.62;;;19.97;72.08
6096;BME280;25081;42.698;23.298;2023-08-17T03:53:40;95301.25;;;20.00;71.76
6096;BME280;25081;42.698;23.298;2023-08-17T03:55:51;95296.06;;;20.07;71.68
6096;BME280;25081;42.698;23.298;2023-08-17T03:58:01;95300.13;;;20.07;71.27
6096;BME280;25081;42.698;23.298;2023-08-17T04:00:14;95299.91;;;19.98;71.76
6096;BME280;25081;42.698;23.298;2023-08-17T04:02:24;95300.70;;;20.01;71.79
6096;BME280;25081;42.698;23.298;2023-08-17T04:04:35;95305.59;;;19.94;71.89
6096;BME280;25081;42.698;23.298;2023-08-17T04:06:45;95306.70;;;19.90;71.90
6096;BME280;25081;42.698;23.298;2023-08-17T04:08:55;95310.72;;;19.95;71.82
6096;BME280;25081;42.698;23.298;2023-08-17T04:11:06;95310.70;;;20.03;71.02
6096;BME280;25081;42.698;23.298;2023-08-17T04:13:17;95308.52;;;20.10;70.63
6096;BME280;25081;42.698;23.298;2023-08-17T04:15:27;95311.99;;;20.16;71.06
6096;BME280;25081;42.698;23.298;2023-08-17T04:17:38;95312.23;;;20.24;69.95
6096;BME280;25081;42.698;23.298;2023-08-17T04:19:48;95308.69;;;20.32;69.23
6096;BME280;25081;42.698;23.298;2023-08-17T04:21:59;95310.00;;;20.44;69.70
6096;BME280;25081;42.698;23.298;2023-08-17T04:24:09;95310.81;;;20.40;69.79
6096;BME280;25081;42.698;23.298;2023-08-17T04:26:20;95309.25;;;20.28;70.48
6096;BME280;25081;42.698;23.298;2023-08-17T04:28:30;95311.09;;;20.38;70.45
6096;BME280;25081;42.698;23.298;2023-08-17T04:30:41;95312.78;;;20.24;70.82
6096;BME280;25081;42.698;23.298;2023-08-17T04:32:51;95306.36;;;20.10;71.70
6096;BME280;25081;42.698;23.298;2023-08-17T04:35:02;95306.64;;;20.08;72.14
6096;BME280;25081;42.698;23.298;2023-08-17T04:37:13;95316.08;;;20.13;72.10
6096;BME280;25081;42.698;23.298;2023-08-17T04:39:23;95201.62;;;19.33;72.15
6096;BME280;25081;42.698;23.298;2023-08-17T04:41:34;95316.92;;;20.09;72.27
6096;BME280;25081;42.698;23.298;2023-08-17T04:43:44;95309.88;;;20.10;72.10
6096;BME280;25081;42.698;23.298;2023-08-17T04:45:55;95310.09;;;20.16;71.83
6096;BME280;25081;42.698;23.298;2023-08-17T04:48:07;95315.53;;;20.14;71.90
6096;BME280;25081;42.698;23.298;2023-08-17T04:50:17;95316.62;;;20.13;71.49
6096;BME280;25081;42.698;23.298;2023-08-17T04:52:28;95315.57;;;20.04;71.32
6096;BME280;25081;42.698;23.298;2023-08-17T04:54:38;95313.42;;;20.00;71.09
6096;BME280;25081;42.698;23.298;2023-08-17T04:56:49;95316.11;;;20.03;70.59
6096;BME280;25081;42.698;23.298;2023-08-17T04:58:59;95313.66;;;20.07;70.58
6096;BME280;25081;42.698;23.298;2023-08-17T05:01:10;95311.75;;;20.12;69.98
6096;BME280;25081;42.698;23.298;2023-08-17T05:03:20;95304.92;;;20.27;69.38
6096;BME280;25081;42.698;23.298;2023-08-17T05:05:31;95312.45;;;20.38;68.72
6096;BME280;25081;42.698;23.298;2023-08-17T05:07:42;95308.75;;;20.76;67.22
6096;BME280;25081;42.698;23.298;2023-08-17T05:09:52;95305.61;;;21.63;63.97
6096;BME280;25081;42.698;23.298;2023-08-17T05:12:03;95299.66;;;22.73;60.68
6096;BME280;25081;42.698;23.298;2023-08-17T05:14:13;95300.86;;;24.14;56.49
6096;BME280;25081;42.698;23.298;2023-08-17T05:16:24;95294.81;;;25.28;53.12
6096;BME280;25081;42.698;23.298;2023-08-17T05:18:35;95298.14;;;26.20;50.31
6096;BME280;25081;42.698;23.298;2023-08-17T05:20:45;95294.88;;;27.30;47.34
6096;BME280;25081;42.698;23.298;2023-08-17T05:22:56;95295.55;;;27.76;45.31
6096;BME280;25081;42.698;23.298;2023-08-17T05:25:08;95296.20;;;28.20;44.20
6096;BME280;25081;42.698;23.298;2023-08-17T05:27:19;95290.29;;;28.24;43.92
6096;BME280;25081;42.698;23.298;2023-08-17T05:29:29;95299.03;;;27.62;44.22
6096;BME280;25081;42.698;23.298;2023-08-17T05:31:40;95301.66;;;27.24;45.41
6096;BME280;25081;42.698;23.298;2023-08-17T05:33:51;95303.48;;;27.52;44.95
6096;BME280;25081;42.698;23.298;2023-08-17T05:36:01;95297.58;;;28.20;43.69
6096;BME280;25081;42.698;23.298;2023-08-17T05:38:12;95297.95;;;28.24;43.06
6096;BME280;25081;42.698;23.298;2023-08-17T05:40:23;95297.70;;;27.85;44.13
6096;BME280;25081;42.698;23.298;2023-08-17T05:42:33;95300.00;;;28.66;42.53
6096;BME280;25081;42.698;23.298;2023-08-17T05:44:44;95306.75;;;28.47;42.23
6096;BME280;25081;42.698;23.298;2023-08-17T05:46:55;95308.45;;;27.58;44.59
6096;BME280;25081;42.698;23.298;2023-08-17T05:49:05;95302.56;;;28.56;42.48
6096;BME280;25081;42.698;23.298;2023-08-17T05:51:16;95300.75;;;29.85;40.06
6096;BME280;25081;42.698;23.298;2023-08-17T05:53:27;95291.88;;;30.49;38.12
6096;BME280;25081;42.698;23.298;2023-08-17T05:55:37;95297.62;;;30.38;38.37
6096;BME280;25081;42.698;23.298;2023-08-17T05:57:48;95304.11;;;29.37;39.64
6096;BME280;25081;42.698;23.298;2023-08-17T05:59:58;95303.63;;;30.01;39.25
6096;BME280;25081;42.698;23.298;2023-08-17T06:02:09;95299.05;;;29.93;39.50
6096;BME280;25081;42.698;23.298;2023-08-17T06:04:19;95300.13;;;30.07;39.36
6096;BME280;25081;42.698;23.298;2023-08-17T06:06:29;95299.81;;;30.51;38.93
6096;BME280;25081;42.698;23.298;2023-08-17T06:08:40;95303.99;;;28.77;42.76
6096;BME280;25081;42.698;23.298;2023-08-17T06:10:50;95307.64;;;28.31;44.44
6096;BME280;25081;42.698;23.298;2023-08-17T06:13:01;95312.11;;;29.57;41.76
6096;BME280;25081;42.698;23.298;2023-08-17T06:15:13;95298.31;;;30.23;40.39
6096;BME280;25081;42.698;23.298;2023-08-17T06:17:22;95295.60;;;31.52;38.38
6096;BME280;25081;42.698;23.298;2023-08-17T06:19:33;95306.09;;;29.01;43.00
6096;BME280;25081;42.698;23.298;2023-08-17T06:21:43;95296.29;;;29.33;42.91
6096;BME280;25081;42.698;23.298;2023-08-17T06:23:53;95303.70;;;28.70;44.24
6096;BME280;25081;42.698;23.298;2023-08-17T06:26:04;95301.80;;;29.06;43.64
6096;BME280;25081;42.698;23.298;2023-08-17T06:28:14;95305.77;;;29.77;42.71
6096;BME280;25081;42.698;23.298;2023-08-17T06:30:25;95297.98;;;30.80;40.77
6096;BME280;25081;42.698;23.298;2023-08-17T06:32:35;95299.94;;;31.87;38.31
6096;BME280;25081;42.698;23.298;2023-08-17T06:34:46;95297.13;;;32.15;37.96
6096;BME280;25081;42.698;23.298;2023-08-17T06:37:01;95302.28;;;31.45;40.26
6096;BME280;25081;42.698;23.298;2023-08-17T06:39:10;95306.69;;;32.28;38.53
6096;BME280;25081;42.698;23.298;2023-08-17T06:41:21;95301.52;;;32.10;39.03
6096;BME280;25081;42.698;23.298;2023-08-17T06:43:31;95316.30;;;30.14;42.74
6096;BME280;25081;42.698;23.298;2023-08-17T06:45:42;95307.84;;;30.68;42.09
6096;BME280;25081;42.698;23.298;2023-08-17T06:47:52;95306.66;;;30.88;41.67
6096;BME280;25081;42.698;23.298;2023-08-17T06:50:03;95307.14;;;32.14;38.78
6096;BME280;25081;42.698;23.298;2023-08-17T06:52:14;95304.44;;;32.39;37.90
6096;BME280;25081;42.698;23.298;2023-08-17T06:54:24;95305.41;;;32.15;38.20
6096;BME280;25081;42.698;23.298;2023-08-17T06:56:35;95302.12;;;31.60;40.10
6096;BME280;25081;42.698;23.298;2023-08-17T06:58:46;95304.88;;;31.32;40.99
6096;BME280;25081;42.698;23.298;2023-08-17T07:00:56;95304.26;;;32.32;37.26
6096;BME280;25081;42.698;23.298;2023-08-17T07:03:07;95303.90;;;33.74;34.50
6096;BME280;25081;42.698;23.298;2023-08-17T07:05:17;95301.66;;;34.35;34.16
6096;BME280;25081;42.698;23.298;2023-08-17T07:07:28;95296.44;;;34.40;33.25
6096;BME280;25081;42.698;23.298;2023-08-17T07:09:39;95297.22;;;35.16;32.56
6096;BME280;25081;42.698;23.298;2023-08-17T07:11:49;95296.53;;;35.53;30.56
6096;BME280;25081;42.698;23.298;2023-08-17T07:14:00;95296.97;;;35.42;30.62
6096;BME280;25081;42.698;23.298;2023-08-17T07:16:10;95298.81;;;34.78;31.33
6096;BME280;25081;42.698;23.298;2023-08-17T07:18:21;95295.22;;;33.95;32.78
6096;BME280;25081;42.698;23.298;2023-08-17T07:20:31;95293.44;;;33.54;33.43
6096;BME280;25081;42.698;23.298;2023-08-17T07:22:42;95294.11;;;34.09;32.33
6096;BME280;25081;42.698;23.298;2023-08-17T07:24:52;95290.11;;;34.30;33.04
6096;BME280;25081;42.698;23.298;2023-08-17T07:27:03;95288.31;;;35.17;29.80
6096;BME280;25081;42.698;23.298;2023-08-17T07:29:13;95281.58;;;33.54;31.79
6096;BME280;25081;42.698;23.298;2023-08-17T07:31:24;95292.12;;;32.68;33.27
6096;BME280;25081;42.698;23.298;2023-08-17T07:33:34;95289.48;;;31.87;34.86
6096;BME280;25081;42.698;23.298;2023-08-17T07:35:45;95289.50;;;31.25;34.98
6096;BME280;25081;42.698;23.298;2023-08-17T07:37:55;95290.80;;;31.49;34.56
6096;BME280;25081;42.698;23.298;2023-08-17T07:40:08;95290.58;;;31.48;34.56
6096;BME280;25081;42.698;23.298;2023-08-17T07:42:18;95294.45;;;32.19;32.89
6096;BME280;25081;42.698;23.298;2023-08-17T07:44:29;95286.17;;;31.25;34.60
6096;BME280;25081;42.698;23.298;2023-08-17T07:46:39;95289.17;;;31.14;34.99
6096;BME280;25081;42.698;23.298;2023-08-17T07:48:50;95289.36;;;33.39;29.94
6096;BME280;25081;42.698;23.298;2023-08-17T07:51:00;95285.80;;;32.84;31.05
6096;BME280;25081;42.698;23.298;2023-08-17T07:53:11;95291.67;;;30.73;34.12
6096;BME280;25081;42.698;23.298;2023-08-17T07:55:22;95288.28;;;30.98;34.56
6096;BME280;25081;42.698;23.298;2023-08-17T07:57:33;95287.66;;;33.15;31.17
6096;BME280;25081;42.698;23.298;2023-08-17T07:59:43;95279.85;;;34.66;28.81
6096;BME280;25081;42.698;23.298;2023-08-17T08:01:54;95279.07;;;34.20;29.68
6096;BME280;25081;42.698;23.298;2023-08-17T08:04:05;95276.98;;;33.71;30.00
6096;BME280;25081;42.698;23.298;2023-08-17T08:06:16;95279.05;;;33.10;30.65
6096;BME280;25081;42.698;23.298;2023-08-17T08:08:26;95269.64;;;33.69;29.41
6096;BME280;25081;42.698;23.298;2023-08-17T08:10:37;95275.20;;;33.40;30.12
6096;BME280;25081;42.698;23.298;2023-08-17T08:12:48;95280.35;;;31.49;32.58
6096;BME280;25081;42.698;23.298;2023-08-17T08:14:58;95267.70;;;32.86;31.27
6096;BME280;25081;42.698;23.298;2023-08-17T08:17:08;95265.77;;;34.06;29.61
6096;BME280;25081;42.698;23.298;2023-08-17T08:19:19;95260.20;;;33.51;30.11
6096;BME280;25081;42.698;23.298;2023-08-17T08:21:29;95259.94;;;33.79;29.32
6096;BME280;25081;42.698;23.298;2023-08-17T08:23:40;95267.63;;;32.67;30.87
6096;BME280;25081;42.698;23.298;2023-08-17T08:25:50;95260.63;;;33.53;29.62
6096;BME280;25081;42.698;23.298;2023-08-17T08:28:01;95259.87;;;32.72;30.95
6096;BME280;25081;42.698;23.298;2023-08-17T08:30:12;95265.28;;;30.54;34.72
6096;BME280;25081;42.698;23.298;2023-08-17T08:32:22;95265.77;;;30.31;35.91
6096;BME280;25081;42.698;23.298;2023-08-17T08:34:33;95259.28;;;30.88;34.32
6096;BME280;25081;42.698;23.298;2023-08-17T08:36:43;95262.88;;;30.46;34.68
6096;BME280;25081;42.698;23.298;2023-08-17T08:38:54;95257.97;;;30.21;35.43
6096;BME280;25081;42.698;23.298;2023-08-17T08:41:05;95255.72;;;31.34;33.61
6096;BME280;25081;42.698;23.298;2023-08-17T08:43:15;95267.66;;;29.49;36.92
6096;BME280;25081;42.698;23.298;2023-08-17T08:45:26;95264.99;;;29.73;37.46
6096;BME280;25081;42.698;23.298;2023-08-17T08:47:37;95258.28;;;32.14;33.50
6096;BME280;25081;42.698;23.298;2023-08-17T08:49:53;95261.55;;;32.52;32.85
6096;BME280;25081;42.698;23.298;2023-08-17T08:52:01;95258.61;;;32.86;32.38
6096;BME280;25081;42.698;23.298;2023-08-17T08:54:12;95255.99;;;30.40;35.89
6096;BME280;25081;42.698;23.298;2023-08-17T08:56:23;95249.36;;;30.35;36.26
6096;BME280;25081;42.698;23.298;2023-08-17T08:58:35;95234.16;;;29.68;37.60
6096;BME280;25081;42.698;23.298;2023-08-17T09:00:47;95257.53;;;31.02;35.11
6096;BME280;25081;42.698;23.298;2023-08-17T09:02:58;95246.25;;;30.79;35.40
6096;BME280;25081;42.698;23.298;2023-08-17T09:05:10;95246.01;;;31.18;35.29
6096;BME280;25081;42.698;23.298;2023-08-17T09:07:20;95240.64;;;31.66;33.72
6096;BME280;25081;42.698;23.298;2023-08-17T09:09:30;95246.73;;;30.32;36.34
6096;BME280;25081;42.698;23.298;2023-08-17T09:11:41;95237.09;;;30.08;36.60
6096;BME280;25081;42.698;23.298;2023-08-17T09:13:52;95228.27;;;30.08;36.37
6096;BME280;25081;42.698;23.298;2023-08-17T09:16:02;95227.20;;;30.62;36.31
6096;BME280;25081;42.698;23.298;2023-08-17T09:18:13;95228.67;;;32.37;33.40
6096;BME280;25081;42.698;23.298;2023-08-17T09:20:39;95227.59;;;33.02;31.56
6096;BME280;25081;42.698;23.298;2023-08-17T09:22:49;95230.55;;;32.58;32.19
6096;BME280;25081;42.698;23.298;2023-08-17T09:25:00;95231.58;;;30.38;35.82
6096;BME280;25081;42.698;23.298;2023-08-17T09:27:12;95216.00;;;31.01;35.15
6096;BME280;25081;42.698;23.298;2023-08-17T09:29:23;95220.11;;;31.35;34.03
6096;BME280;25081;42.698;23.298;2023-08-17T09:31:33;95211.95;;;31.98;33.62
6096;BME280;25081;42.698;23.298;2023-08-17T09:33:48;95215.33;;;32.07;33.32
6096;BME280;25081;42.698;23.298;2023-08-17T09:35:55;95207.79;;;33.00;31.66
6096;BME280;25081;42.698;23.298;2023-08-17T09:38:05;95201.63;;;33.68;30.18
6096;BME280;25081;42.698;23.298;2023-08-17T09:40:16;95193.61;;;34.41;28.47
6096;BME280;25081;42.698;23.298;2023-08-17T09:42:27;95206.86;;;33.21;30.29
6096;BME280;25081;42.698;23.298;2023-08-17T09:44:38;95207.87;;;32.59;31.30
6096;BME280;25081;42.698;23.298;2023-08-17T09:46:48;95202.76;;;32.26;32.04
6096;BME280;25081;42.698;23.298;2023-08-17T09:48:59;95198.54;;;31.37;33.22
6096;BME280;25081;42.698;23.298;2023-08-17T09:51:10;95188.75;;;32.25;32.29
6096;BME280;25081;42.698;23.298;2023-08-17T09:53:20;95179.22;;;33.31;30.79
6096;BME280;25081;42.698;23.298;2023-08-17T09:55:32;95182.43;;;33.04;31.22
6096;BME280;25081;42.698;23.298;2023-08-17T09:57:42;95188.91;;;32.57;31.21
6096;BME280;25081;42.698;23.298;2023-08-17T09:59:53;95197.20;;;32.32;31.14
6096;BME280;25081;42.698;23.298;2023-08-17T10:02:03;95190.16;;;32.69;31.06
6096;BME280;25081;42.698;23.298;2023-08-17T10:04:14;95175.48;;;32.65;31.27
6096;BME280;25081;42.698;23.298;2023-08-17T10:06:25;95178.13;;;33.07;31.00
6096;BME280;25081;42.698;23.298;2023-08-17T10:08:38;95169.59;;;32.67;29.32
6096;BME280;25081;42.698;23.298;2023-08-17T10:10:46;95171.23;;;32.87;29.47
6096;BME280;25081;42.698;23.298;2023-08-17T10:13:01;95175.91;;;32.32;30.91
6096;BME280;25081;42.698;23.298;2023-08-17T10:15:11;95170.99;;;33.25;29.26
6096;BME280;25081;42.698;23.298;2023-08-17T10:17:25;95165.70;;;32.42;30.05
6096;BME280;25081;42.698;23.298;2023-08-17T10:19:37;95170.59;;;32.59;29.81
6096;BME280;25081;42.698;23.298;2023-08-17T10:21:48;95171.05;;;32.80;29.35
6096;BME280;25081;42.698;23.298;2023-08-17T10:23:57;95172.97;;;32.00;30.66
6096;BME280;25081;42.698;23.298;2023-08-17T10:26:08;95182.80;;;31.53;30.86
6096;BME280;25081;42.698;23.298;2023-08-17T10:28:18;95177.75;;;32.18;30.02
6096;BME280;25081;42.698;23.298;2023-08-17T10:30:29;95167.95;;;31.74;30.47
6096;BME280;25081;42.698;23.298;2023-08-17T10:32:39;95167.92;;;31.48;30.87
6096;BME280;25081;42.698;23.298;2023-08-17T10:34:51;95165.42;;;31.75;31.08
6096;BME280;25081;42.698;23.298;2023-08-17T10:37:02;95151.94;;;33.10;28.67
6096;BME280;25081;42.698;23.298;2023-08-17T10:39:25;95159.34;;;32.77;28.78
6096;BME280;25081;42.698;23.298;2023-08-17T10:41:45;95152.03;;;33.56;27.93
6096;BME280;25081;42.698;23.298;2023-08-17T10:43:56;95166.70;;;31.55;30.55
6096;BME280;25081;42.698;23.298;2023-08-17T10:46:18;95159.06;;;31.86;30.17
6096;BME280;25081;42.698;23.298;2023-08-17T10:48:30;95158.52;;;31.97;30.55
6096;BME280;25081;42.698;23.298;2023-08-17T10:50:40;95140.45;;;32.25;30.38
6096;BME280;25081;42.698;23.298;2023-08-17T10:52:51;95123.42;;;33.25;29.18
6096;BME280;25081;42.698;23.298;2023-08-17T10:55:02;95154.67;;;31.10;31.08
6096;BME280;25081;42.698;23.298;2023-08-17T10:57:32;95155.24;;;31.38;30.58
6096;BME280;25081;42.698;23.298;2023-08-17T10:59:45;95150.09;;;31.52;30.14
6096;BME280;25081;42.698;23.298;2023-08-17T11:01:55;95151.85;;;31.44;30.64
6096;BME280;25081;42.698;23.298;2023-08-17T11:04:15;95161.42;;;32.04;31.59
6096;BME280;25081;42.698;23.298;2023-08-17T11:06:23;95140.53;;;32.54;31.31
6096;BME280;25081;42.698;23.298;2023-08-17T11:08:35;95132.77;;;32.98;30.65
6096;BME280;25081;42.698;23.298;2023-08-17T11:10:48;95138.99;;;31.96;31.00
6096;BME280;25081;42.698;23.298;2023-08-17T11:12:59;95139.20;;;31.49;32.18
6096;BME280;25081;42.698;23.298;2023-08-17T11:15:11;95125.67;;;32.42;30.93
6096;BME280;25081;42.698;23.298;2023-08-17T11:17:22;95126.14;;;32.54;29.86
6096;BME280;25081;42.698;23.298;2023-08-17T11:19:32;95126.02;;;32.95;29.99
6096;BME280;25081;42.698;23.298;2023-08-17T11:21:43;95120.76;;;33.00;29.22
6096;BME280;25081;42.698;23.298;2023-08-17T11:23:56;95115.55;;;32.95;29.78
6096;BME280;25081;42.698;23.298;2023-08-17T11:26:07;95122.46;;;32.85;30.04
6096;BME280;25081;42.698;23.298;2023-08-17T11:28:17;95125.48;;;31.21;32.03
6096;BME280;25081;42.698;23.298;2023-08-17T11:30:27;95122.56;;;31.61;32.31
6096;BME280;25081;42.698;23.298;2023-08-17T11:32:38;95117.05;;;32.18;32.05